Paducah, KY (42001)

1:00 AM CST on February 20, 2017 (GMT -0600)
Ricks Place Paducah, KY | | Change Station
Active Advisory: Dense Fog Advisory

Elev 351 ft 37.07 °N, 88.62 °W | Updated 13 seconds ago

Fog
Fog
46.5 °F
Feels Like 46 °F
N
0.0
Wind Variable Wind from South

Today
High -- | Low -- °F
--% Chance of Precip.
Yesterday
High -- | Low -- °F
Precip. -- in
Pressure 30.09 in
Visibility 0.2 miles
Clouds
Windchill 46 °F
Dew Point 46 °F
Humidity 98%
Rainfall 0.00 in
Snow Depth Not available.
6:36 AM 5:40 PM
Last Quarter, 36% visible
METAR KPAH 200653Z AUTO 11004KT 1/4SM FG VV003 08/07 A3009 RMK AO2 SLP188 T00830072 $
Pressure 30.09 in
Visibility 0.2 miles
Clouds
Windchill 46 °F
Dew Point 46 °F
Humidity 98%
Rainfall 0.00 in
Snow Depth Not available.
6:36 AM 5:40 PM
Last Quarter, 36% visible
METAR KPAH 200653Z AUTO 11004KT 1/4SM FG VV003 08/07 A3009 RMK AO2 SLP188 T00830072 $

Get Your Daily Forecast Email!

Thanks for signing up!

Be on the lookout for a verification email in your inbox.

You'll start receiving the daily forecast at 8 AM.

×

10-Day Weather Forecast

Almanac

Astronomy

Feb. 20, 2017 Rise Set
Actual Time
Civil Twilight
Nautical Twilight
Astronomical Twilight
Moon
Length of Visible Light
Length of Day
Tomorrow will be .
, % of the Moon is Illuminated

Today's Extremes

State Highs State Lows

Community

WunderPhotos

Upload Photos

1,962,540 photos uploaded!

WunderBlog® & News

Nearby

Air Quality

  Air Quality AQ Index Pollutant
Not available.

Snow Depth

Station Depth Elevation

Earthquake Activity

City Distance Mag. Time & Date
Minimum magnitude displayed is 2.5.

Coastal Water Temperatures

Place Temperature

Stations

Nearby Weather Stations

Station Location Temp. Windchill Dew Point Humidity Wind Precip. Elev Updated Type
                   

Watches & Warnings

Dense Fog Advisory
Issued: 10:45 PM CST Feb. 19, 2017 – National Weather Service

... Dense fog advisory remains in effect until 8 am CST Monday...

* visibility... at or below 1/4 of a mile in some areas.

* Impacts... hazardous driving conditions overnight.

Precautionary/preparedness actions...

A dense fog advisory means visibilities will frequently be
reduced to less than one quarter mile. If driving... slow down...
use your headlights... and leave plenty of distance ahead of you